Time;durP1;ratioP1;P1;durP2;ratioP2;P2;SDS_P1;SDS_P2;PMS_P1;PMS_P2;Temp;Humidity;BMP_temperature;BMP_pressure;BME280_temperature;BME280_humidity;BME280_pressure;Samples;Min_cycle;Max_cycle;Signal;HPM_P1;HPM_P2
2021/05/30 00:00:17;;;;;;;;;;;;;;;21.18;58.71;99976.41;2057965;28;20012;-48
2021/05/30 00:01:17;;;;;;;;;;;;;;;21.18;58.57;99981.88;2057735;28;19921;-48
2021/05/30 00:02:18;;;;;;;;;;;;;;;21.17;58.72;99983.78;2057592;28;19913;-50
2021/05/30 00:03:18;;;;;;;;;;;;;;;21.17;58.90;99985.66;2057239;28;19933;-48
2021/05/30 00:04:19;;;;;;;;;;;;;;;21.18;58.97;99990.09;2057870;28;20325;-47
2021/05/30 00:05:19;;;;;;;;;;;;;;;21.17;58.99;99985.66;2054536;28;19921;-51
2021/05/30 00:06:19;;;;;;;;;;;;;;;21.17;59.06;99985.66;2057323;28;19914;-48
2021/05/30 00:07:22;;;;;;;;;;;;;;;21.18;58.80;99987.38;2057790;28;19956;-51
2021/05/30 00:08:22;;;;;;;;;;;;;;;21.17;58.87;99991.13;2057931;28;20016;-50
2021/05/30 00:09:23;;;;;;;;;;;;;;;21.17;58.73;99992.00;2057750;28;19975;-50
2021/05/30 00:10:23;;;;;;;;;;;;;;;21.16;59.03;99989.41;2053202;28;19918;-50
2021/05/30 00:11:24;;;;;;;;;;;;;;;21.16;58.98;99984.78;2052497;28;19919;-50
2021/05/30 00:12:24;;;;;;;;;;;;;;;21.17;58.85;99988.41;2058403;28;19925;-48
2021/05/30 00:13:24;;;;;;;;;;;;;;;21.17;59.01;99985.66;2057423;28;20312;-48
2021/05/30 00:14:25;;;;;;;;;;;;;;;21.17;59.12;99991.13;2057688;28;19913;-46
2021/05/30 00:15:25;;;;;;;;;;;;;;;21.16;58.80;99983.94;2056692;28;19914;-49
2021/05/30 00:16:26;;;;;;;;;;;;;;;21.16;58.84;99986.66;2057506;28;19918;-48
2021/05/30 00:17:26;;;;;;;;;;;;;;;21.17;59.03;99985.66;2057575;28;20226;-48
2021/05/30 00:18:26;;;;;;;;;;;;;;;21.17;58.74;99980.19;2053214;28;19914;-47
2021/05/30 00:19:27;;;;;;;;;;;;;;;21.17;58.93;99985.66;2050165;29;19969;-50
2021/05/30 00:20:27;;;;;;;;;;;;;;;21.16;59.14;99984.78;2054709;28;19918;-48
2021/05/30 00:21:27;;;;;;;;;;;;;;;21.17;58.87;99996.63;2057183;28;20329;-48
2021/05/30 00:22:28;;;;;;;;;;;;;;;21.16;58.99;99990.25;2057734;28;19917;-47
2021/05/30 00:23:28;;;;;;;;;;;;;;;21.17;58.93;99980.19;2057889;28;19946;-48
2021/05/30 00:24:28;;;;;;;;;;;;;;;21.16;58.75;99989.41;2057090;28;20123;-48
2021/05/30 00:25:28;;;;;;;;;;;;;;;21.16;59.05;99995.75;2057938;28;19941;-46
2021/05/30 00:26:29;;;;;;;;;;;;;;;21.16;58.90;99986.66;2054508;28;19921;-50
2021/05/30 00:27:29;;;;;;;;;;;;;;;21.15;58.95;99984.97;2056587;28;19925;-49
2021/05/30 00:28:29;;;;;;;;;;;;;;;21.15;58.95;99982.22;2053514;28;19922;-47
2021/05/30 00:29:30;;;;;;;;;;;;;;;21.15;58.95;99988.56;2057257;28;19913;-47
2021/05/30 00:30:30;;;;;;;;;;;;;;;21.15;59.16;99987.69;2057493;28;19921;-46
2021/05/30 00:31:30;;;;;;;;;;;;;;;21.15;59.13;99991.28;2057307;28;20309;-47
2021/05/30 00:32:31;;;;;;;;;;;;;;;21.15;58.97;99982.22;2053429;28;19914;-47
2021/05/30 00:33:32;;;;;;;;;;;;;;;21.15;58.95;99988.56;2051321;28;19914;-50
2021/05/30 00:34:32;;;;;;;;;;;;;;;21.15;58.89;99982.22;2057750;28;19918;-47
2021/05/30 00:35:32;;;;;;;;;;;;;;;21.16;58.92;99983.94;2057194;28;19914;-48
2021/05/30 00:36:33;;;;;;;;;;;;;;;21.14;58.92;99980.50;2056586;28;20281;-48
2021/05/30 00:37:33;;;;;;;;;;;;;;;21.15;58.99;99982.22;2054650;28;19921;-49
2021/05/30 00:38:33;;;;;;;;;;;;;;;21.14;59.08;99985.97;2058014;28;19918;-47
2021/05/30 00:39:34;;;;;;;;;;;;;;;21.14;58.99;99986.84;2056276;28;19920;-47
2021/05/30 00:40:35;;;;;;;;;;;;;;;21.14;58.78;99989.59;2057008;28;20359;-47
2021/05/30 00:41:35;;;;;;;;;;;;;;;21.14;58.97;99992.34;2057706;28;19921;-47
2021/05/30 00:42:35;;;;;;;;;;;;;;;21.13;59.12;99985.13;2057438;28;19940;-46
2021/05/30 00:43:46;;;;;;;;;;;;;;;21.14;59.17;99996.94;2057501;28;19964;-49
2021/05/30 00:44:47;;;;;;;;;;;;;;;21.14;58.88;99985.97;2057047;28;19921;-49
2021/05/30 00:45:49;;;;;;;;;;;;;;;21.13;58.89;99984.25;2057341;28;19956;-50
2021/05/30 00:46:50;;;;;;;;;;;;;;;21.13;59.10;99979.63;2057139;28;19914;-49
2021/05/30 00:47:50;;;;;;;;;;;;;;;21.14;59.24;99977.75;2057448;28;19914;-51
2021/05/30 00:48:51;;;;;;;;;;;;;;;21.14;59.20;99975.88;2057439;28;19937;-46
2021/05/30 00:49:51;;;;;;;;;;;;;;;21.13;59.28;99973.31;2057593;28;19918;-46
2021/05/30 00:50:51;;;;;;;;;;;;;;;21.12;59.26;99964.22;2057504;28;19914;-49
2021/05/30 00:51:52;;;;;;;;;;;;;;;21.14;59.20;99966.78;2057727;28;19914;-48
2021/05/30 00:52:53;;;;;;;;;;;;;;;21.13;59.13;99967.81;2055010;28;19928;-47
2021/05/30 00:53:53;;;;;;;;;;;;;;;21.12;59.17;99966.13;2056988;28;20049;-48
2021/05/30 00:54:53;;;;;;;;;;;;;;;21.12;58.97;99966.13;2056273;28;19918;-46
2021/05/30 00:55:54;;;;;;;;;;;;;;;21.12;59.17;99966.13;2057305;28;19921;-47
2021/05/30 00:56:54;;;;;;;;;;;;;;;21.12;59.10;99966.13;2054880;28;19976;-49
2021/05/30 00:57:54;;;;;;;;;;;;;;;21.12;59.34;99971.59;2056018;28;19914;-46
2021/05/30 00:58:55;;;;;;;;;;;;;;;21.12;59.34;99974.34;2057444;28;19924;-50
2021/05/30 00:59:55;;;;;;;;;;;;;;;21.12;58.97;99960.63;2057608;28;19929;-48
2021/05/30 01:00:55;;;;;;;;;;;;;;;21.11;59.15;99969.88;2056164;28;19977;-48
2021/05/30 01:01:56;;;;;;;;;;;;;;;21.12;58.99;99960.63;2057657;28;20596;-48
2021/05/30 01:02:56;;;;;;;;;;;;;;;21.12;59.32;99957.91;2054233;28;19929;-47
2021/05/30 01:03:56;;;;;;;;;;;;;;;21.12;59.06;99960.63;2056680;28;19922;-47
2021/05/30 01:04:57;;;;;;;;;;;;;;;21.11;59.16;99959.75;2057390;28;19914;-49
2021/05/30 01:05:57;;;;;;;;;;;;;;;21.11;59.03;99953.41;2056729;28;20391;-48
2021/05/30 01:06:58;;;;;;;;;;;;;;;21.11;58.94;99953.41;2056917;28;19913;-50
2021/05/30 01:07:59;;;;;;;;;;;;;;;21.11;59.06;99961.66;2057467;28;20622;-48
2021/05/30 01:09:01;;;;;;;;;;;;;;;21.10;59.05;99951.72;2056934;28;19937;-48
2021/05/30 01:10:16;;;;;;;;;;;;;;;21.11;59.08;99958.91;2053299;28;19914;-48
2021/05/30 01:11:16;;;;;;;;;;;;;;;21.11;59.01;99958.91;2057230;28;19961;-49
2021/05/30 01:12:17;;;;;;;;;;;;;;;21.10;59.09;99965.41;2057896;28;19913;-50
2021/05/30 01:13:17;;;;;;;;;;;;;;;21.10;59.18;99957.19;2057196;28;19910;-47
2021/05/30 01:14:18;;;;;;;;;;;;;;;21.10;59.16;99969.00;2057290;28;19918;-48
2021/05/30 01:15:18;;;;;;;;;;;;;;;21.10;58.97;99962.69;2055984;28;19930;-46
2021/05/30 01:16:19;;;;;;;;;;;;;;;21.10;59.21;99962.69;2053759;28;19917;-48
2021/05/30 01:17:19;;;;;;;;;;;;;;;21.10;59.18;99969.00;2056324;28;19917;-48
2021/05/30 01:18:20;;;;;;;;;;;;;;;21.10;59.08;99966.28;2057488;28;19913;-46
2021/05/30 01:19:26;;;;;;;;;;;;;;;21.10;59.33;99962.69;2057470;28;20339;-49
2021/05/30 01:20:27;;;;;;;;;;;;;;;21.11;59.04;99964.38;2056050;28;19918;-48
2021/05/30 01:21:27;;;;;;;;;;;;;;;21.10;59.33;99959.94;2056247;28;20676;-48
2021/05/30 01:22:28;;;;;;;;;;;;;;;21.09;59.21;99960.94;2057629;28;19917;-49
2021/05/30 01:23:29;;;;;;;;;;;;;;;21.09;59.35;99961.81;2057093;28;19961;-50
2021/05/30 01:24:29;;;;;;;;;;;;;;;21.10;59.24;99965.41;2054966;28;19918;-47
2021/05/30 01:25:29;;;;;;;;;;;;;;;21.10;59.32;99968.16;2057234;28;19921;-48
2021/05/30 01:26:30;;;;;;;;;;;;;;;21.10;59.27;99968.16;2057498;28;19969;-48
2021/05/30 01:27:30;;;;;;;;;;;;;;;21.10;59.04;99970.91;2054122;28;19918;-49
2021/05/30 01:28:30;;;;;;;;;;;;;;;21.09;59.13;99977.38;2056789;28;19968;-48
2021/05/30 01:29:30;;;;;;;;;;;;;;;21.09;59.28;99974.66;2054648;28;20372;-49
2021/05/30 01:30:31;;;;;;;;;;;;;;;21.09;59.26;99978.28;2057375;28;19913;-49
2021/05/30 01:31:32;;;;;;;;;;;;;;;21.08;59.15;99973.78;2054973;28;19965;-47
2021/05/30 01:32:32;;;;;;;;;;;;;;;21.08;59.28;99973.78;2056593;28;20020;-48
2021/05/30 01:33:33;;;;;;;;;;;;;;;21.09;59.32;99971.91;2056665;28;19946;-51
2021/05/30 01:34:33;;;;;;;;;;;;;;;21.09;59.10;99958.19;2057174;28;20335;-47
2021/05/30 01:35:34;;;;;;;;;;;;;;;21.08;59.31;99959.25;2057152;28;19986;-47
2021/05/30 01:36:34;;;;;;;;;;;;;;;21.08;59.44;99961.97;2054622;28;19916;-48
2021/05/30 01:37:35;;;;;;;;;;;;;;;21.08;59.53;99959.25;2050297;28;19914;-48
2021/05/30 01:38:35;;;;;;;;;;;;;;;21.08;59.35;99964.72;2054791;28;20228;-46
2021/05/30 01:39:35;;;;;;;;;;;;;;;21.08;59.51;99967.47;2056239;28;19996;-47
2021/05/30 01:40:36;;;;;;;;;;;;;;;21.08;59.28;99971.06;2053113;28;19929;-49
2021/05/30 01:41:36;;;;;;;;;;;;;;;21.08;59.39;99970.22;2051384;28;19953;-49
2021/05/30 01:42:37;;;;;;;;;;;;;;;21.07;59.32;99965.72;2056951;28;19913;-47
2021/05/30 01:43:37;;;;;;;;;;;;;;;21.07;59.40;99968.47;2054405;28;19961;-48
2021/05/30 01:44:37;;;;;;;;;;;;;;;21.07;59.32;99966.63;2055848;28;20689;-49
2021/05/30 01:45:39;;;;;;;;;;;;;;;21.08;59.39;99964.72;2055617;28;20471;-52
2021/05/30 01:46:40;;;;;;;;;;;;;;;21.07;59.35;99968.47;2053573;28;19976;-46
2021/05/30 01:47:41;;;;;;;;;;;;;;;21.07;59.25;99960.25;2056866;28;20010;-46
2021/05/30 01:48:41;;;;;;;;;;;;;;;21.08;59.50;99964.72;2056850;28;19914;-47
2021/05/30 01:49:42;;;;;;;;;;;;;;;21.06;59.57;99962.13;2056523;28;20347;-49
2021/05/30 01:50:47;;;;;;;;;;;;;;;21.06;59.54;99967.63;2054092;28;19925;-46
2021/05/30 01:51:47;;;;;;;;;;;;;;;21.06;59.57;99961.28;2057621;28;19914;-46
2021/05/30 01:52:48;;;;;;;;;;;;;;;21.06;59.22;99961.28;2055781;28;20012;-46
2021/05/30 01:53:53;;;;;;;;;;;;;;;21.06;59.31;99966.75;2056638;28;19921;-47
2021/05/30 01:54:53;;;;;;;;;;;;;;;21.06;59.27;99969.50;2057255;28;20404;-48
2021/05/30 01:56:57;;;;;;;;;;;;;;;21.07;59.38;99979.44;2050882;28;19922;-49
2021/05/30 01:57:58;;;;;;;;;;;;;;;21.06;59.25;99977.72;2053868;28;20329;-46
2021/05/30 01:59:01;;;;;;;;;;;;;;;21.05;59.34;99971.41;2056589;28;19918;-50
2021/05/30 02:00:01;;;;;;;;;;;;;;;21.06;59.43;99975.84;2057023;28;19972;-48
2021/05/30 02:01:01;;;;;;;;;;;;;;;21.05;59.34;99974.13;2052254;28;19918;-47
2021/05/30 02:02:02;;;;;;;;;;;;;;;21.05;59.48;99982.34;2049215;28;20076;-47
2021/05/30 02:03:03;;;;;;;;;;;;;;;21.05;59.40;99978.75;2056509;28;19918;-49
2021/05/30 02:04:06;;;;;;;;;;;;;;;21.06;59.40;99983.22;2055703;28;19914;-46
2021/05/30 02:05:06;;;;;;;;;;;;;;;21.06;59.21;99983.22;2057403;28;20024;-50
2021/05/30 02:06:07;;;;;;;;;;;;;;;21.05;59.49;99981.50;2056138;28;19921;-50
2021/05/30 02:07:08;;;;;;;;;;;;;;;21.05;59.44;99976.03;2056912;28;19921;-51
2021/05/30 02:08:09;;;;;;;;;;;;;;;21.06;59.46;99980.47;2056841;28;19949;-46
2021/05/30 02:09:10;;;;;;;;;;;;;;;21.05;59.41;99978.75;2056931;28;20399;-49
2021/05/30 02:10:11;;;;;;;;;;;;;;;21.04;59.26;99975.13;2057129;28;19925;-48
2021/05/30 02:11:12;;;;;;;;;;;;;;;21.05;59.22;99981.50;2052405;28;20623;-47
2021/05/30 02:12:14;;;;;;;;;;;;;;;21.04;59.53;99980.63;2053038;28;20001;-46
2021/05/30 02:13:15;;;;;;;;;;;;;;;21.04;59.40;99980.63;2056851;28;20085;-51
2021/05/30 02:14:16;;;;;;;;;;;;;;;21.04;59.30;99986.09;2056387;28;19917;-48
2021/05/30 02:15:16;;;;;;;;;;;;;;;21.04;59.42;99979.78;2056993;28;19928;-46
2021/05/30 02:16:17;;;;;;;;;;;;;;;21.04;59.57;99982.50;2054381;28;19925;-48
2021/05/30 02:17:18;;;;;;;;;;;;;;;21.04;59.49;99979.78;2056959;28;20358;-47
2021/05/30 02:18:19;;;;;;;;;;;;;;;21.03;59.32;99983.53;2057027;28;19914;-49
2021/05/30 02:19:19;;;;;;;;;;;;;;;21.04;59.25;99979.78;2056389;28;20221;-51
2021/05/30 02:20:28;;;;;;;;;;;;;;;21.02;59.27;99977.22;2053034;28;19921;-47
2021/05/30 02:21:42;;;;;;;;;;;;;;;21.03;59.32;99978.06;2057107;28;20013;-48
2021/05/30 02:22:42;;;;;;;;;;;;;;;21.04;59.47;99977.03;2056719;28;19921;-49
2021/05/30 02:23:43;;;;;;;;;;;;;;;21.03;59.21;99975.31;2056215;28;19942;-47
2021/05/30 02:24:44;;;;;;;;;;;;;;;21.03;59.48;99972.59;2056736;28;19941;-50
2021/05/30 02:25:45;;;;;;;;;;;;;;;21.02;59.33;99971.72;2056490;28;19914;-47
2021/05/30 02:26:45;;;;;;;;;;;;;;;21.03;59.43;99972.59;2056141;28;19918;-47
2021/05/30 02:27:45;;;;;;;;;;;;;;;21.02;59.53;99974.47;2053417;28;19913;-47
2021/05/30 02:28:46;;;;;;;;;;;;;;;21.02;59.50;99968.09;2056715;28;19962;-48
2021/05/30 02:29:47;;;;;;;;;;;;;;;21.02;59.63;99976.34;2056548;28;19967;-49
2021/05/30 02:30:47;;;;;;;;;;;;;;;21.02;59.66;99976.34;2057131;28;20008;-46
2021/05/30 02:31:48;;;;;;;;;;;;;;;21.01;59.57;99975.47;2056478;28;19965;-48
2021/05/30 02:32:48;;;;;;;;;;;;;;;21.02;59.75;99981.81;2056242;28;19918;-50
2021/05/30 02:33:49;;;;;;;;;;;;;;;21.02;59.61;99984.56;2056528;28;20329;-47
2021/05/30 02:34:49;;;;;;;;;;;;;;;21.02;59.45;99981.81;2056883;28;19917;-48
2021/05/30 02:35:49;;;;;;;;;;;;;;;21.03;59.64;99983.53;2054926;28;19966;-49
2021/05/30 02:36:50;;;;;;;;;;;;;;;21.01;59.73;99980.09;2056808;28;19962;-51
2021/05/30 02:37:50;;;;;;;;;;;;;;;21.01;59.49;99974.63;2057189;28;19946;-48
2021/05/30 02:38:50;;;;;;;;;;;;;;;21.02;59.50;99981.81;2056251;28;20325;-49
2021/05/30 02:39:51;;;;;;;;;;;;;;;21.01;59.43;99975.47;2056708;28;19921;-48
2021/05/30 02:40:51;;;;;;;;;;;;;;;21.02;59.71;99981.81;2057125;28;19924;-47
2021/05/30 02:41:51;;;;;;;;;;;;;;;21.02;59.75;99977.22;2055649;28;19958;-51
2021/05/30 02:42:52;;;;;;;;;;;;;;;21.02;59.79;99979.06;2056451;28;19964;-47
2021/05/30 02:43:52;;;;;;;;;;;;;;;21.01;59.50;99980.97;2056305;28;19924;-48
2021/05/30 02:44:52;;;;;;;;;;;;;;;21.01;59.37;99982.84;2055671;28;19957;-46
2021/05/30 02:45:53;;;;;;;;;;;;;;;21.01;59.65;99985.59;2050658;28;19961;-46
2021/05/30 02:46:53;;;;;;;;;;;;;;;21.01;59.63;99982.84;2051754;28;20424;-46
2021/05/30 02:47:53;;;;;;;;;;;;;;;21.01;59.61;99980.09;2057047;28;19960;-46
2021/05/30 02:48:53;;;;;;;;;;;;;;;21.00;59.77;99978.41;2056871;28;19913;-46
2021/05/30 02:49:54;;;;;;;;;;;;;;;21.00;59.46;99981.16;2056408;28;20308;-48
2021/05/30 02:50:58;;;;;;;;;;;;;;;21.01;59.81;99985.59;2055082;28;20233;-48
2021/05/30 02:51:59;;;;;;;;;;;;;;;21.00;59.61;99981.16;2056488;28;20595;-46
2021/05/30 02:53:00;;;;;;;;;;;;;;;21.00;59.58;99987.47;2055947;28;20308;-46
2021/05/30 02:54:01;;;;;;;;;;;;;;;20.99;59.78;99988.47;2056494;28;20012;-45
2021/05/30 02:55:01;;;;;;;;;;;;;;;21.00;59.52;99989.38;2056267;28;19929;-45
2021/05/30 02:56:02;;;;;;;;;;;;;;;21.00;59.50;99989.38;2051449;28;20334;-49
2021/05/30 02:57:02;;;;;;;;;;;;;;;20.98;59.63;99987.63;2057079;28;21940;-50
2021/05/30 02:58:03;;;;;;;;;;;;;;;21.00;59.56;99989.38;2053297;28;20190;-45
2021/05/30 02:59:03;;;;;;;;;;;;;;;20.98;59.87;99982.16;2056879;28;19956;-47
2021/05/30 03:00:05;;;;;;;;;;;;;;;20.98;59.85;99979.41;2056363;28;20009;-48
2021/05/30 03:01:05;;;;;;;;;;;;;;;20.99;59.67;99988.47;2055108;28;19914;-48
2021/05/30 03:02:05;;;;;;;;;;;;;;;20.98;59.50;99987.63;2063312;28;20382;-46
2021/05/30 03:03:06;;;;;;;;;;;;;;;20.98;59.70;99986.78;2063185;28;19961;-49
2021/05/30 03:04:06;;;;;;;;;;;;;;;21.00;59.72;99989.38;2056142;28;19918;-48
2021/05/30 03:05:07;;;;;;;;;;;;;;;20.98;59.54;99982.16;2056640;28;19917;-46
2021/05/30 03:06:07;;;;;;;;;;;;;;;20.97;59.68;99979.59;2056559;28;19925;-46
2021/05/30 03:07:07;;;;;;;;;;;;;;;20.98;59.67;99976.66;2056868;28;19918;-48
2021/05/30 03:08:08;;;;;;;;;;;;;;;20.96;59.74;99978.72;2056917;28;19914;-46
2021/05/30 03:09:08;;;;;;;;;;;;;;;20.98;59.56;99973.94;2056886;28;20308;-46
2021/05/30 03:10:09;;;;;;;;;;;;;;;20.98;59.57;99978.56;2056765;28;19921;-49
2021/05/30 03:11:10;;;;;;;;;;;;;;;20.98;59.69;99975.81;2056103;28;20360;-45
2021/05/30 03:12:10;;;;;;;;;;;;;;;20.97;59.84;99969.50;2055844;28;19914;-47
2021/05/30 03:13:10;;;;;;;;;;;;;;;20.96;59.82;99973.22;2056453;28;19921;-51
2021/05/30 03:14:10;;;;;;;;;;;;;;;20.96;59.74;99967.75;2056732;28;19920;-47
2021/05/30 03:15:11;;;;;;;;;;;;;;;20.95;59.53;99971.53;2056289;28;19914;-46
2021/05/30 03:16:11;;;;;;;;;;;;;;;20.96;59.71;99973.22;2057122;28;19920;-47
2021/05/30 03:17:12;;;;;;;;;;;;;;;20.95;59.79;99968.78;2056059;28;19956;-50
2021/05/30 03:18:12;;;;;;;;;;;;;;;20.96;59.66;99975.97;2057130;28;19918;-45
2021/05/30 03:19:12;;;;;;;;;;;;;;;20.95;59.79;99971.53;2056620;28;19914;-48
2021/05/30 03:20:13;;;;;;;;;;;;;;;20.96;59.63;99967.75;2056005;28;19914;-48
2021/05/30 03:21:15;;;;;;;;;;;;;;;20.95;59.64;99966.06;2056785;28;19924;-49
2021/05/30 03:22:15;;;;;;;;;;;;;;;20.96;59.64;99970.50;2054060;28;20343;-48
2021/05/30 03:23:15;;;;;;;;;;;;;;;20.95;59.88;99982.50;2056558;28;19918;-47
2021/05/30 03:24:15;;;;;;;;;;;;;;;20.95;59.73;99977.00;2056243;28;19949;-48
2021/05/30 03:25:16;;;;;;;;;;;;;;;20.96;59.90;99984.19;2057270;28;19959;-48
2021/05/30 03:26:16;;;;;;;;;;;;;;;20.95;59.81;99978.91;2065145;28;19923;-49
2021/05/30 03:27:16;;;;;;;;;;;;;;;20.96;59.80;99984.19;2057468;28;19914;-45
2021/05/30 03:28:17;;;;;;;;;;;;;;;20.96;59.57;99989.69;2054164;28;19926;-49
2021/05/30 03:29:17;;;;;;;;;;;;;;;20.96;59.76;99983.34;2058157;28;19972;-46
2021/05/30 03:30:17;;;;;;;;;;;;;;;20.96;59.70;99995.16;2057370;28;20515;-47
2021/05/30 03:31:18;;;;;;;;;;;;;;;20.95;59.91;99990.72;2057835;28;19925;-46
2021/05/30 03:32:18;;;;;;;;;;;;;;;20.96;59.66;99992.41;2048740;28;19981;-47
2021/05/30 03:33:18;;;;;;;;;;;;;;;20.96;59.79;99989.69;2049264;29;19918;-48
2021/05/30 03:34:19;;;;;;;;;;;;;;;20.95;59.91;99998.94;2057927;28;19940;-46
2021/05/30 03:35:19;;;;;;;;;;;;;;;20.96;59.66;99995.16;2058153;28;19914;-45
2021/05/30 03:36:23;;;;;;;;;;;;;;;20.95;59.64;99987.97;2057038;28;19918;-48
2021/05/30 03:37:23;;;;;;;;;;;;;;;20.94;59.66;99990.88;2058351;28;19941;-47
2021/05/30 03:38:25;;;;;;;;;;;;;;;20.95;59.78;99985.22;2057293;28;19921;-47
2021/05/30 03:39:28;;;;;;;;;;;;;;;20.94;59.72;99991.72;2058183;28;19949;-46
2021/05/30 03:40:31;;;;;;;;;;;;;;;20.95;59.68;99992.59;2057768;28;19914;-49
2021/05/30 03:41:37;;;;;;;;;;;;;;;20.93;59.93;99990.00;2055914;28;19914;-48
2021/05/30 03:42:41;;;;;;;;;;;;;;;20.95;59.83;99989.84;2050664;28;19930;-46
2021/05/30 03:43:42;;;;;;;;;;;;;;;20.94;59.76;99997.19;2054577;28;19918;-45
2021/05/30 03:44:42;;;;;;;;;;;;;;;20.95;59.80;99992.59;2058546;28;19953;-45
2021/05/30 03:45:42;;;;;;;;;;;;;;;20.94;59.96;99997.19;2057481;28;20046;-46
2021/05/30 03:46:43;;;;;;;;;;;;;;;20.94;59.81;99986.22;2057850;28;19914;-45
2021/05/30 03:47:43;;;;;;;;;;;;;;;20.94;59.91;99991.72;2057669;28;19925;-48
2021/05/30 03:48:43;;;;;;;;;;;;;;;20.94;59.84;99997.19;2058232;28;19982;-47
2021/05/30 03:49:43;;;;;;;;;;;;;;;20.94;59.75;99993.59;2057925;28;19914;-47
2021/05/30 03:50:49;;;;;;;;;;;;;;;20.95;60.09;100000.81;2057518;28;19925;-47
2021/05/30 03:51:49;;;;;;;;;;;;;;;20.94;60.02;99996.34;2057771;28;19921;-47
2021/05/30 03:52:49;;;;;;;;;;;;;;;20.94;59.92;99991.72;2054501;28;19918;-47
2021/05/30 03:53:50;;;;;;;;;;;;;;;20.93;59.99;100000.97;2057796;28;19937;-47
2021/05/30 03:54:50;;;;;;;;;;;;;;;20.92;60.02;99993.78;2057977;28;20035;-48
2021/05/30 03:55:50;;;;;;;;;;;;;;;20.92;59.91;99993.78;2057946;28;19918;-46
2021/05/30 03:56:51;;;;;;;;;;;;;;;20.92;59.98;100001.13;2058027;28;19920;-48
2021/05/30 03:57:51;;;;;;;;;;;;;;;20.92;60.18;99999.25;2056815;28;20651;-46
2021/05/30 03:58:52;;;;;;;;;;;;;;;20.92;59.93;100004.75;2054888;28;20282;-50
2021/05/30 03:59:52;;;;;;;;;;;;;;;20.93;59.89;100000.97;2057096;28;19921;-46
2021/05/30 04:00:52;;;;;;;;;;;;;;;20.91;59.88;99989.31;2057757;28;19957;-49
2021/05/30 04:01:52;;;;;;;;;;;;;;;20.91;59.85;99992.06;2057167;28;19914;-46
2021/05/30 04:02:53;;;;;;;;;;;;;;;20.92;59.84;99987.41;2057487;28;20555;-47
2021/05/30 04:03:53;;;;;;;;;;;;;;;20.91;60.09;99986.56;2057877;28;19925;-47
2021/05/30 04:04:53;;;;;;;;;;;;;;;20.91;59.86;99991.19;2057720;28;19920;-49
2021/05/30 04:05:54;;;;;;;;;;;;;;;20.91;60.01;99986.56;2057812;28;19914;-47
2021/05/30 04:06:54;;;;;;;;;;;;;;;20.91;60.09;99989.31;2056747;28;20355;-47
2021/05/30 04:07:54;;;;;;;;;;;;;;;20.90;59.97;99990.34;2058157;28;19922;-48
2021/05/30 04:08:54;;;;;;;;;;;;;;;20.90;60.10;99984.88;2057647;28;19977;-49
2021/05/30 04:09:55;;;;;;;;;;;;;;;20.90;59.92;99990.34;2057363;28;20367;-47
2021/05/30 04:10:55;;;;;;;;;;;;;;;20.89;60.02;99988.59;2055786;28;19922;-47
2021/05/30 04:11:55;;;;;;;;;;;;;;;20.91;60.03;100002.16;2057485;28;19973;-47
2021/05/30 04:12:56;;;;;;;;;;;;;;;20.90;59.96;99994.97;2057621;28;19925;-46
2021/05/30 04:13:56;;;;;;;;;;;;;;;20.91;60.10;100003.00;2057749;28;20300;-45
2021/05/30 04:14:56;;;;;;;;;;;;;;;20.90;59.93;100001.31;2058157;28;19918;-48
2021/05/30 04:15:57;;;;;;;;;;;;;;;20.90;60.12;99995.81;2057423;28;19987;-47
2021/05/30 04:16:57;;;;;;;;;;;;;;;20.90;60.04;99995.81;2055926;28;20241;-46
2021/05/30 04:17:57;;;;;;;;;;;;;;;20.90;60.05;100000.44;2058159;28;19913;-46
2021/05/30 04:18:58;;;;;;;;;;;;;;;20.90;59.89;99994.97;2057220;28;19953;-46
2021/05/30 04:19:59;;;;;;;;;;;;;;;20.91;60.07;99991.19;2057570;28;19914;-47
2021/05/30 04:20:59;;;;;;;;;;;;;;;20.89;60.17;99999.56;2057527;28;19917;-48
2021/05/30 04:22:00;;;;;;;;;;;;;;;20.90;60.11;100004.03;2056500;28;19930;-49
2021/05/30 04:23:00;;;;;;;;;;;;;;;20.90;59.94;100005.94;2057079;28;19928;-45
2021/05/30 04:24:00;;;;;;;;;;;;;;;20.90;59.86;99997.72;2056225;28;20328;-49
2021/05/30 04:25:01;;;;;;;;;;;;;;;20.90;59.91;100006.78;2057523;28;19914;-46
2021/05/30 04:26:02;;;;;;;;;;;;;;;20.89;59.95;99999.56;2057986;28;19921;-48
2021/05/30 04:27:02;;;;;;;;;;;;;;;20.89;60.00;99996.84;2057069;28;19957;-47
2021/05/30 04:28:02;;;;;;;;;;;;;;;20.90;60.22;100000.44;2057986;28;19956;-47
2021/05/30 04:29:03;;;;;;;;;;;;;;;20.89;60.05;100005.06;2052048;28;19918;-48
2021/05/30 04:30:07;;;;;;;;;;;;;;;20.89;60.02;100005.06;2051717;28;20190;-47
2021/05/30 04:31:07;;;;;;;;;;;;;;;20.89;60.24;99998.72;2051944;28;19974;-47
2021/05/30 04:32:07;;;;;;;;;;;;;;;20.89;60.00;100006.94;2054300;28;20470;-47
2021/05/30 04:33:08;;;;;;;;;;;;;;;20.88;60.18;100011.56;2057786;28;19914;-50
2021/05/30 04:34:08;;;;;;;;;;;;;;;20.88;60.06;100002.50;2057481;28;19960;-46
2021/05/30 04:35:09;;;;;;;;;;;;;;;20.89;59.94;100007.78;2057454;28;19914;-45
2021/05/30 04:36:09;;;;;;;;;;;;;;;20.89;60.28;100010.53;2057423;28;19920;-48
2021/05/30 04:37:09;;;;;;;;;;;;;;;20.88;60.15;100000.59;2057291;28;19983;-47
2021/05/30 04:38:09;;;;;;;;;;;;;;;20.89;59.96;100006.94;2056813;28;19952;-45
2021/05/30 04:39:10;;;;;;;;;;;;;;;20.88;59.99;100003.34;2052590;28;19914;-46
2021/05/30 04:40:11;;;;;;;;;;;;;;;20.89;60.09;99998.72;2052150;28;19952;-47
2021/05/30 04:41:11;;;;;;;;;;;;;;;20.90;60.19;100000.44;2057343;28;19917;-47
2021/05/30 04:42:11;;;;;;;;;;;;;;;20.90;60.12;99997.72;2056930;28;19986;-47
2021/05/30 04:43:11;;;;;;;;;;;;;;;20.91;59.99;99996.69;2057285;28;19965;-47
2021/05/30 04:44:12;;;;;;;;;;;;;;;20.89;59.97;99999.56;2057527;28;20033;-46
2021/05/30 04:45:12;;;;;;;;;;;;;;;20.88;59.95;99997.88;2057441;28;19913;-48
2021/05/30 04:46:13;;;;;;;;;;;;;;;20.89;60.22;99998.72;2057236;28;19921;-46
2021/05/30 04:47:13;;;;;;;;;;;;;;;20.87;60.21;99996.16;2057364;28;19914;-48
2021/05/30 04:48:14;;;;;;;;;;;;;;;20.88;60.10;99997.88;2057080;28;19954;-47
2021/05/30 04:49:14;;;;;;;;;;;;;;;20.86;60.41;99997.16;2055892;28;19945;-45
2021/05/30 04:50:14;;;;;;;;;;;;;;;20.88;60.12;100000.59;2056947;28;19953;-46
2021/05/30 04:51:15;;;;;;;;;;;;;;;20.86;60.30;100005.38;2056365;28;19930;-47
2021/05/30 04:52:15;;;;;;;;;;;;;;;20.86;60.26;99999.06;2057542;28;19928;-46
2021/05/30 04:53:15;;;;;;;;;;;;;;;20.86;60.40;99994.44;2056972;28;19961;-47
2021/05/30 04:54:16;;;;;;;;;;;;;;;20.85;60.39;99998.19;2057044;28;19996;-47
2021/05/30 04:55:16;;;;;;;;;;;;;;;20.85;60.30;99998.19;2056813;28;19957;-48
2021/05/30 04:56:19;;;;;;;;;;;;;;;20.85;60.56;99998.19;2057029;28;19929;-48
2021/05/30 04:57:20;;;;;;;;;;;;;;;20.86;60.51;99993.56;2057418;28;19957;-47
2021/05/30 04:58:20;;;;;;;;;;;;;;;20.85;60.45;100003.69;2057199;28;19945;-46
2021/05/30 04:59:20;;;;;;;;;;;;;;;20.84;60.43;99996.47;2054185;28;19922;-48
2021/05/30 05:00:21;;;;;;;;;;;;;;;20.83;60.50;99997.50;2055834;28;19940;-47
2021/05/30 05:01:21;;;;;;;;;;;;;;;20.84;60.41;100001.94;2056261;28;20237;-47
2021/05/30 05:02:21;;;;;;;;;;;;;;;20.84;60.43;100007.44;2057393;28;19961;-47
2021/05/30 05:03:21;;;;;;;;;;;;;;;20.85;60.33;100008.28;2057002;28;20312;-46
2021/05/30 05:04:22;;;;;;;;;;;;;;;20.84;60.22;100007.44;2057388;28;19914;-46
2021/05/30 05:05:22;;;;;;;;;;;;;;;20.84;60.25;100007.44;2057128;28;19929;-48
2021/05/30 05:06:23;;;;;;;;;;;;;;;20.82;60.26;100009.47;2057306;28;19917;-47
2021/05/30 05:07:23;;;;;;;;;;;;;;;20.83;60.27;100013.94;2057217;28;19918;-46
2021/05/30 05:08:24;;;;;;;;;;;;;;;20.84;60.18;100010.16;2057099;28;19937;-48
2021/05/30 05:09:24;;;;;;;;;;;;;;;20.83;60.38;100008.47;2057522;28;19921;-45
2021/05/30 05:10:25;;;;;;;;;;;;;;;20.83;60.16;100005.72;2054439;28;19914;-46
2021/05/30 05:11:25;;;;;;;;;;;;;;;20.83;60.23;100005.72;2056967;28;19941;-47
2021/05/30 05:12:25;;;;;;;;;;;;;;;20.83;60.31;100005.72;2056743;28;19945;-46
2021/05/30 05:13:26;;;;;;;;;;;;;;;20.84;60.27;99993.72;2056781;28;19953;-46
2021/05/30 05:14:26;;;;;;;;;;;;;;;20.84;60.18;99996.47;2057644;28;19918;-47
2021/05/30 05:15:26;;;;;;;;;;;;;;;20.86;60.24;99994.44;2056459;28;19913;-48
2021/05/30 05:16:27;;;;;;;;;;;;;;;20.89;60.17;99993.25;2056958;28;19918;-48